createdAt,value
2018-03-28T00:00:42.348Z,206.47
2018-03-28T00:03:09.933Z,412.37
2018-03-28T00:05:37.625Z,255.33
2018-03-28T00:08:05.225Z,220.13
2018-03-28T00:10:32.813Z,200.67
2018-03-28T00:13:00.573Z,318.53
2018-03-28T00:15:28.183Z,199.47
2018-03-28T00:17:55.781Z,277.30
2018-03-28T00:20:23.414Z,597.60
2018-03-28T00:22:51.008Z,166.23
2018-03-28T00:25:18.600Z,388.43
2018-03-28T00:27:46.234Z,173.33
2018-03-28T00:30:13.830Z,265.03
2018-03-28T00:32:41.433Z,438.80
2018-03-28T00:35:09.073Z,403.20
2018-03-28T00:37:36.714Z,408.23
2018-03-28T00:40:04.314Z,417.47
2018-03-28T00:42:31.944Z,512.47
2018-03-28T00:44:59.542Z,408.37
2018-03-28T00:47:27.135Z,105.73
2018-03-28T00:49:54.763Z,247.37
2018-03-28T00:52:22.354Z,200.37
2018-03-28T00:54:49.950Z,221.67
2018-03-28T00:57:17.582Z,446.17
2018-03-28T00:59:45.191Z,547.03
2018-03-28T01:02:12.785Z,355.23
2018-03-28T01:04:40.440Z,219.60
2018-03-28T01:07:08.042Z,241.33
2018-03-28T01:09:35.629Z,58.17
2018-03-28T01:12:03.265Z,81.10
2018-03-28T01:14:30.862Z,101.57
2018-03-28T01:16:58.455Z,94.87
2018-03-28T01:19:26.093Z,218.53
2018-03-28T01:21:53.678Z,90.90
2018-03-28T01:24:21.267Z,72.20
2018-03-28T01:26:48.894Z,52.27
2018-03-28T01:29:16.489Z,95.87
2018-03-28T01:31:44.088Z,123.40
2018-03-28T01:34:11.714Z,99.90
2018-03-28T01:36:39.305Z,130.23
2018-03-28T01:39:06.919Z,124.43
2018-03-28T01:41:34.570Z,85.57
2018-03-28T01:44:02.169Z,102.80
2018-03-28T01:46:29.770Z,327.57
2018-03-28T01:48:57.411Z,313.70
2018-03-28T01:51:25.075Z,230.70
2018-03-28T01:53:52.674Z,104.03
2018-03-28T01:56:20.315Z,289.80
2018-03-28T01:58:47.900Z,138.60
2018-03-28T02:01:15.512Z,321.20
2018-03-28T02:03:43.174Z,131.73
2018-03-28T02:06:10.772Z,89.73
2018-03-28T02:08:38.363Z,113.23
2018-03-28T02:11:05.995Z,313.70
2018-03-28T02:13:33.589Z,330.37
2018-03-28T02:16:01.178Z,506.67
2018-03-28T02:18:28.800Z,327.50
2018-03-28T02:20:56.395Z,321.57
2018-03-28T02:23:24.012Z,350.83
2018-03-28T02:25:51.630Z,438.40
2018-03-28T02:28:19.232Z,258.33
2018-03-28T02:30:46.826Z,566.20
2018-03-28T02:33:14.460Z,378.77
2018-03-28T02:35:42.058Z,124.10
2018-03-28T02:38:09.654Z,376.67
2018-03-28T02:40:37.277Z,87.80
2018-03-28T02:43:04.907Z,123.33
2018-03-28T02:45:32.503Z,139.73
2018-03-28T02:48:00.144Z,251.97
2018-03-28T02:50:27.773Z,133.40
2018-03-28T02:52:55.376Z,297.40
2018-03-28T02:55:23.026Z,146.10
2018-03-28T02:57:50.628Z,742.37
2018-03-28T03:00:18.280Z,390.17
2018-03-28T03:02:45.932Z,676.50
2018-03-28T03:05:13.531Z,292.90
2018-03-28T03:07:41.130Z,505.70
2018-03-28T03:10:08.781Z,690.53
2018-03-28T03:12:36.372Z,636.20
2018-03-28T03:15:03.975Z,746.63
2018-03-28T03:17:31.615Z,143.90
2018-03-28T03:19:59.214Z,425.13
2018-03-28T03:22:26.804Z,306.77
2018-03-28T03:24:54.442Z,460.43
2018-03-28T03:27:22.044Z,218.63
2018-03-28T03:29:49.651Z,242.40
2018-03-28T03:32:17.289Z,324.80
2018-03-28T03:34:44.882Z,185.17
2018-03-28T03:37:12.474Z,280.70
2018-03-28T03:39:40.099Z,253.60
2018-03-28T03:42:07.710Z,221.03
2018-03-28T03:44:35.299Z,371.37
2018-03-28T03:47:02.934Z,134.63
2018-03-28T03:49:30.533Z,204.00
2018-03-28T03:51:58.125Z,123.27
2018-03-28T03:54:25.763Z,72.03
2018-03-28T03:56:53.354Z,123.63
2018-03-28T03:59:20.946Z,138.27
2018-03-28T04:01:48.590Z,217.43
2018-03-28T04:04:16.177Z,99.63
2018-03-28T04:06:43.772Z,154.53
2018-03-28T04:09:11.400Z,259.33
2018-03-28T04:11:39.001Z,230.30
2018-03-28T04:14:06.600Z,143.70
2018-03-28T04:16:34.476Z,106.20
2018-03-28T04:19:02.080Z,85.17
2018-03-28T04:21:29.666Z,112.83
2018-03-28T04:23:57.300Z,198.33
2018-03-28T04:26:24.893Z,95.73
2018-03-28T04:28:52.494Z,91.33
2018-03-28T04:31:20.168Z,120.37
2018-03-28T04:33:47.769Z,108.03
2018-03-28T04:36:15.355Z,81.33
2018-03-28T04:38:42.987Z,136.40
2018-03-28T04:41:10.586Z,73.10
2018-03-28T04:43:38.178Z,74.13
2018-03-28T04:46:05.810Z,106.17
2018-03-28T04:48:33.399Z,58.70
2018-03-28T04:51:01.002Z,91.00
2018-03-28T04:53:28.643Z,68.70
2018-03-28T04:55:56.243Z,66.40
2018-03-28T04:58:23.846Z,76.07
2018-03-28T05:00:51.474Z,67.87
2018-03-28T05:03:19.082Z,67.63
2018-03-28T05:05:46.675Z,90.53
2018-03-28T05:08:14.303Z,71.70
2018-03-28T05:10:41.891Z,69.57
2018-03-28T05:13:09.482Z,58.40
2018-03-28T05:15:37.137Z,68.53
2018-03-28T05:18:04.748Z,64.97
2018-03-28T05:20:32.368Z,60.70
2018-03-28T05:23:00.010Z,51.93
2018-03-28T05:25:27.596Z,63.30
2018-03-28T05:27:55.186Z,51.80
2018-03-28T05:30:22.818Z,52.90
2018-03-28T05:32:50.402Z,46.30
2018-03-28T05:35:17.990Z,63.03
2018-03-28T05:37:45.618Z,55.53
2018-03-28T05:40:13.210Z,61.90
2018-03-28T05:42:40.797Z,50.43
2018-03-28T05:45:08.487Z,54.07
2018-03-28T05:47:36.071Z,59.33
2018-03-28T05:50:03.671Z,63.60
2018-03-28T05:52:31.300Z,47.53
2018-03-28T05:54:58.899Z,45.83
2018-03-28T05:57:26.502Z,41.83
2018-03-28T05:59:54.125Z,48.50
2018-03-28T06:02:21.716Z,43.20
2018-03-28T06:04:49.294Z,39.37
2018-03-28T06:07:16.926Z,48.90
2018-03-28T06:09:44.506Z,49.23
2018-03-28T06:12:12.100Z,45.27
2018-03-28T06:14:39.730Z,45.73
2018-03-28T06:17:07.314Z,43.90
2018-03-28T06:19:34.899Z,51.27
2018-03-28T06:22:02.522Z,58.40
2018-03-28T06:24:30.110Z,70.63
2018-03-28T06:26:57.701Z,50.47
2018-03-28T06:29:25.403Z,51.03
2018-03-28T06:31:53.000Z,50.00
2018-03-28T06:34:20.589Z,52.23
2018-03-28T06:36:48.206Z,48.37
2018-03-28T06:39:15.801Z,56.70
2018-03-28T06:41:43.402Z,62.23
2018-03-28T06:44:11.031Z,60.33
2018-03-28T06:49:12.386Z,52.63
2018-03-28T06:51:39.976Z,52.43
2018-03-28T06:54:07.568Z,55.93
2018-03-28T06:56:35.192Z,58.40
2018-03-28T06:59:02.809Z,56.43
2018-03-28T07:01:30.406Z,57.97
2018-03-28T07:03:58.074Z,48.47
2018-03-28T07:06:25.662Z,53.73
2018-03-28T07:08:53.291Z,50.77
2018-03-28T07:11:20.967Z,42.20
2018-03-28T07:13:48.611Z,40.67
2018-03-28T07:16:17.120Z,44.60
2018-03-28T07:18:44.753Z,44.67
2018-03-28T07:21:12.518Z,48.53
2018-03-28T07:23:40.108Z,45.50
2018-03-28T07:26:07.740Z,47.37
2018-03-28T07:28:35.555Z,67.80
2018-03-28T07:31:04.936Z,116.10
2018-03-28T07:33:32.671Z,123.70
2018-03-28T07:36:00.330Z,163.83
2018-03-28T07:38:27.930Z,161.10
2018-03-28T07:40:58.473Z,151.60
2018-03-28T07:43:26.068Z,145.23
2018-03-28T07:45:53.662Z,147.13
2018-03-28T07:48:21.381Z,141.00
2018-03-28T07:50:49.277Z,138.77
2018-03-28T07:53:16.994Z,156.23
2018-03-28T07:55:44.675Z,145.43
2018-03-28T07:58:12.267Z,143.73
2018-03-28T08:00:39.974Z,134.70
2018-03-28T08:03:07.602Z,122.47
2018-03-28T08:05:35.237Z,101.77
2018-03-28T08:08:02.858Z,110.40
2018-03-28T08:10:30.544Z,89.90
2018-03-28T08:12:58.207Z,82.83
2018-03-28T08:15:25.827Z,71.00
2018-03-28T08:17:54.816Z,74.70
2018-03-28T08:20:22.642Z,53.97
2018-03-28T08:22:50.229Z,61.27
2018-03-28T08:25:18.610Z,53.47
2018-03-28T08:27:46.894Z,53.07
2018-03-28T08:30:14.498Z,55.27
2018-03-28T08:32:42.357Z,70.00
2018-03-28T08:35:09.943Z,56.03
2018-03-28T08:37:37.643Z,70.30
2018-03-28T08:40:05.307Z,76.77
2018-03-28T08:42:33.003Z,56.07
2018-03-28T08:45:01.556Z,61.77
2018-03-28T08:47:29.199Z,78.40
2018-03-28T08:49:56.823Z,89.50
2018-03-28T08:52:24.509Z,74.63
2018-03-28T08:54:52.149Z,70.83
2018-03-28T08:57:19.793Z,66.83
2018-03-28T08:59:48.499Z,75.63
2018-03-28T09:02:16.339Z,75.17
2018-03-28T09:04:44.139Z,65.40
2018-03-28T09:09:47.371Z,70.53
2018-03-28T09:12:15.318Z,67.40
2018-03-28T09:14:46.458Z,73.93
2018-03-28T09:17:14.423Z,69.47
2018-03-28T09:19:42.159Z,62.77
2018-03-28T09:22:13.929Z,51.93
2018-03-28T09:27:32.549Z,52.93
2018-03-28T09:30:01.766Z,59.40
2018-03-28T09:32:29.463Z,53.57
2018-03-28T09:34:57.080Z,51.37
2018-03-28T09:37:24.860Z,54.60
2018-03-28T09:39:52.808Z,42.03
2018-03-28T09:42:20.405Z,50.00
2018-03-28T09:44:48.228Z,52.57
2018-03-28T09:47:15.827Z,51.60
2018-03-28T09:49:43.416Z,56.20
2018-03-28T09:52:11.114Z,43.33
2018-03-28T09:54:41.093Z,47.37
2018-03-28T09:57:08.785Z,49.70
2018-03-28T09:59:36.444Z,37.60
2018-03-28T10:02:10.519Z,40.13
2018-03-28T10:04:43.561Z,52.67
2018-03-28T10:07:11.159Z,43.07
2018-03-28T10:09:38.773Z,42.00
2018-03-28T10:12:06.397Z,48.43
2018-03-28T10:14:33.989Z,46.60
2018-03-28T10:17:01.621Z,42.50
2018-03-28T10:19:30.869Z,43.90
2018-03-28T10:21:58.554Z,35.43
2018-03-28T10:24:27.318Z,35.00
2018-03-28T10:26:55.005Z,38.77
2018-03-28T10:29:23.665Z,44.20
2018-03-28T10:31:51.310Z,40.60
2018-03-28T10:34:19.051Z,45.33
2018-03-28T10:36:46.648Z,39.10
2018-03-28T10:39:14.515Z,39.33
2018-03-28T10:41:42.160Z,35.80
2018-03-28T10:44:09.785Z,38.07
2018-03-28T10:46:37.399Z,37.03
2018-03-28T10:49:07.422Z,38.73
2018-03-28T10:51:35.156Z,42.50
2018-03-28T10:54:02.857Z,38.03
2018-03-28T10:56:30.499Z,34.33
2018-03-28T10:58:58.440Z,33.63
2018-03-28T11:01:26.139Z,40.57
2018-03-28T11:03:53.756Z,42.83
2018-03-28T11:06:21.359Z,40.23
2018-03-28T11:08:49.019Z,41.40
2018-03-28T11:11:16.656Z,48.07
2018-03-28T11:13:44.255Z,48.17
2018-03-28T11:16:11.856Z,43.07
2018-03-28T11:18:39.496Z,37.17
2018-03-28T11:21:07.083Z,40.87
2018-03-28T11:23:34.658Z,40.10
2018-03-28T11:26:02.293Z,41.80
2018-03-28T11:28:29.865Z,37.60
2018-03-28T11:30:57.442Z,37.80
2018-03-28T11:33:25.054Z,47.73
2018-03-28T11:35:52.891Z,39.27
2018-03-28T11:38:20.473Z,40.30
2018-03-28T11:40:48.078Z,47.37
2018-03-28T11:43:15.670Z,41.47
2018-03-28T11:45:43.279Z,42.43
2018-03-28T11:48:10.940Z,35.70
2018-03-28T11:50:38.529Z,32.13
2018-03-28T11:53:06.129Z,34.83
2018-03-28T11:55:33.759Z,38.23
2018-03-28T11:58:01.371Z,42.47
2018-03-28T12:00:28.958Z,47.53
2018-03-28T12:02:56.572Z,40.13
2018-03-28T12:05:24.154Z,37.43
2018-03-28T12:07:51.746Z,32.67
2018-03-28T12:10:19.374Z,38.10
2018-03-28T12:12:46.947Z,39.70
2018-03-28T12:15:14.542Z,40.50
2018-03-28T12:17:42.178Z,37.00
2018-03-28T12:20:09.766Z,38.97
2018-03-28T12:22:37.358Z,37.27
2018-03-28T12:25:05.025Z,38.17
2018-03-28T12:27:32.594Z,43.20
2018-03-28T12:30:00.182Z,39.53
2018-03-28T12:32:27.873Z,40.90
2018-03-28T12:34:55.469Z,58.27
2018-03-28T12:37:23.054Z,27.77
2018-03-28T12:39:50.680Z,33.57
2018-03-28T12:42:18.577Z,39.13
2018-03-28T12:44:46.168Z,33.57
2018-03-28T12:47:13.866Z,36.50
2018-03-28T12:49:41.492Z,42.17
2018-03-28T12:52:09.802Z,39.50
2018-03-28T12:54:37.422Z,45.40
2018-03-28T12:57:04.997Z,48.17
2018-03-28T12:59:32.571Z,40.17
2018-03-28T13:02:00.197Z,58.23
2018-03-28T13:04:27.781Z,63.97
2018-03-28T13:06:55.356Z,44.40
2018-03-28T13:09:22.981Z,54.97
2018-03-28T13:11:50.552Z,72.67
2018-03-28T13:14:18.134Z,49.77
2018-03-28T13:16:45.760Z,57.80
2018-03-28T13:19:13.353Z,48.50
2018-03-28T13:21:40.914Z,43.50
2018-03-28T13:24:08.543Z,60.87
2018-03-28T13:26:36.134Z,52.03
2018-03-28T13:29:03.709Z,79.10
2018-03-28T13:31:31.379Z,68.30
2018-03-28T13:33:58.951Z,55.90
2018-03-28T13:36:26.553Z,123.10
2018-03-28T13:38:54.173Z,38.93
2018-03-28T13:41:21.779Z,51.10
2018-03-28T13:43:49.366Z,58.50
2018-03-28T13:46:16.975Z,55.73
2018-03-28T13:48:44.542Z,35.43
2018-03-28T13:51:12.164Z,35.03
2018-03-28T13:53:39.780Z,39.53
2018-03-28T13:56:07.357Z,39.37
2018-03-28T13:58:34.938Z,32.93
2018-03-28T14:01:02.629Z,41.07
2018-03-28T14:03:30.206Z,39.30
2018-03-28T14:05:57.812Z,39.50
2018-03-28T14:08:25.446Z,40.83
2018-03-28T14:10:53.026Z,30.90
2018-03-28T14:13:20.609Z,36.17
2018-03-28T14:15:48.225Z,28.63
2018-03-28T14:18:15.805Z,51.17
2018-03-28T14:20:43.385Z,48.53
2018-03-28T14:23:11.013Z,33.50
2018-03-28T14:25:38.586Z,45.23
2018-03-28T14:28:06.184Z,37.60
2018-03-28T14:30:33.828Z,36.43
2018-03-28T14:33:01.407Z,35.30
2018-03-28T14:35:29.012Z,29.77
2018-03-28T14:37:56.632Z,28.70
2018-03-28T14:40:24.207Z,33.70
2018-03-28T14:42:54.590Z,31.03
2018-03-28T14:45:19.436Z,80.40
2018-03-28T14:47:47.013Z,40.07
2018-03-28T14:50:14.588Z,45.13
2018-03-28T14:52:42.207Z,37.37
2018-03-28T14:55:09.798Z,40.77
2018-03-28T14:57:37.394Z,37.10
2018-03-28T15:00:05.006Z,34.20
2018-03-28T15:02:32.585Z,35.50
2018-03-28T15:05:00.161Z,64.00
2018-03-28T15:07:27.784Z,49.30
2018-03-28T15:09:55.364Z,42.57
2018-03-28T15:12:22.948Z,38.80
2018-03-28T15:14:50.550Z,52.63
2018-03-28T15:17:18.160Z,63.47
2018-03-28T15:19:45.783Z,300.53
2018-03-28T15:22:13.416Z,327.90
2018-03-28T15:24:41.015Z,254.57
2018-03-28T15:27:08.612Z,294.20
2018-03-28T15:29:36.234Z,200.90
2018-03-28T15:32:03.821Z,130.77
2018-03-28T15:34:31.425Z,105.60
2018-03-28T15:36:59.072Z,34.83
2018-03-28T15:39:26.708Z,31.20
2018-03-28T15:41:54.286Z,40.27
2018-03-28T15:44:21.942Z,54.83
2018-03-28T15:46:49.531Z,45.30
2018-03-28T15:49:17.117Z,54.13
2018-03-28T15:51:44.764Z,91.93
2018-03-28T15:54:12.358Z,97.37
2018-03-28T15:56:39.976Z,142.83
2018-03-28T15:59:07.645Z,41.93
2018-03-28T16:01:35.268Z,59.67
2018-03-28T16:04:02.854Z,46.43
2018-03-28T16:06:30.496Z,42.70
2018-03-28T16:08:58.078Z,36.77
2018-03-28T16:11:25.711Z,41.53
2018-03-28T16:13:53.584Z,37.97
2018-03-28T16:16:21.164Z,65.10
2018-03-28T16:18:48.754Z,124.27
2018-03-28T16:21:16.373Z,113.97
2018-03-28T16:23:43.943Z,60.00
2018-03-28T16:26:11.526Z,187.53
2018-03-28T16:28:39.155Z,218.57
2018-03-28T16:31:06.731Z,224.90
2018-03-28T16:33:34.363Z,80.00
2018-03-28T16:36:01.986Z,76.13
2018-03-28T16:38:29.576Z,69.63
2018-03-28T16:40:57.481Z,47.20
2018-03-28T16:43:25.138Z,48.60
2018-03-28T16:45:52.738Z,75.47
2018-03-28T16:48:20.375Z,87.07
2018-03-28T16:50:48.008Z,73.70
2018-03-28T16:53:15.586Z,56.63
2018-03-28T16:55:43.155Z,74.70
2018-03-28T16:58:10.793Z,97.27
2018-03-28T17:00:38.386Z,86.50
2018-03-28T17:03:05.968Z,88.10
2018-03-28T17:05:33.575Z,69.30
2018-03-28T17:08:01.168Z,88.27
2018-03-28T17:10:28.746Z,67.00
2018-03-28T17:12:56.358Z,57.93
2018-03-28T17:17:57.755Z,75.13
2018-03-28T17:20:25.327Z,79.73
2018-03-28T17:22:52.920Z,75.00
2018-03-28T17:25:20.539Z,77.70
2018-03-28T17:27:48.115Z,96.53
2018-03-28T17:30:15.751Z,97.70
2018-03-28T17:32:43.381Z,103.97
2018-03-28T17:35:10.956Z,118.70
2018-03-28T17:37:38.531Z,139.57
2018-03-28T17:40:06.195Z,106.87
2018-03-28T17:42:33.789Z,132.70
2018-03-28T17:45:01.386Z,115.73
2018-03-28T17:47:29.035Z,117.83
2018-03-28T17:49:56.625Z,112.20
2018-03-28T17:52:24.200Z,125.17
2018-03-28T17:54:51.817Z,113.53
2018-03-28T17:57:19.414Z,136.73
2018-03-28T17:59:46.993Z,107.87
2018-03-28T18:02:14.605Z,107.27
2018-03-28T18:04:42.185Z,77.70
2018-03-28T18:07:09.764Z,69.70
2018-03-28T18:09:37.371Z,81.90
2018-03-28T18:12:04.958Z,95.67
2018-03-28T18:14:32.563Z,114.47
2018-03-28T18:17:00.178Z,77.70
2018-03-28T18:19:27.960Z,78.60
2018-03-28T18:21:55.573Z,95.63
2018-03-28T18:24:23.202Z,96.90
2018-03-28T18:26:50.773Z,88.70
2018-03-28T18:29:18.383Z,88.67
2018-03-28T18:31:46.020Z,104.37
2018-03-28T18:34:13.619Z,91.57
2018-03-28T18:36:41.189Z,96.93
2018-03-28T18:39:08.813Z,83.70
2018-03-28T18:41:36.397Z,98.33
2018-03-28T18:44:03.992Z,108.83
2018-03-28T18:46:31.619Z,88.10
2018-03-28T18:48:59.202Z,99.80
2018-03-28T18:51:26.785Z,87.10
2018-03-28T18:53:54.465Z,94.00
2018-03-28T18:56:22.051Z,105.27
2018-03-28T18:58:49.646Z,109.13
2018-03-28T19:01:17.276Z,102.73
2018-03-28T19:03:44.875Z,111.90
2018-03-28T19:06:12.455Z,119.50
2018-03-28T19:08:40.076Z,131.93
2018-03-28T19:11:07.658Z,78.73
2018-03-28T19:13:35.265Z,108.43
2018-03-28T19:16:02.879Z,92.30
2018-03-28T19:18:30.500Z,116.27
2018-03-28T19:20:58.100Z,117.47
2018-03-28T19:23:25.710Z,91.27
2018-03-28T19:25:53.289Z,109.00
2018-03-28T19:28:20.881Z,94.10
2018-03-28T19:30:48.511Z,99.10
2018-03-28T19:33:16.137Z,122.90
2018-03-28T19:35:43.812Z,99.30
2018-03-28T19:38:11.443Z,122.73
2018-03-28T19:40:39.042Z,123.80
2018-03-28T19:43:06.649Z,113.27
2018-03-28T19:45:34.254Z,99.03
2018-03-28T19:48:01.841Z,98.27
2018-03-28T19:50:29.569Z,121.70
2018-03-28T19:52:57.201Z,118.57
2018-03-28T19:55:24.786Z,103.07
2018-03-28T19:57:52.383Z,108.40
2018-03-28T20:00:20.015Z,106.50
2018-03-28T20:02:47.594Z,97.67
2018-03-28T20:05:15.178Z,101.27
2018-03-28T20:07:42.835Z,112.40
2018-03-28T20:10:10.399Z,96.43
2018-03-28T20:12:37.972Z,109.23
2018-03-28T20:15:05.586Z,104.60
2018-03-28T20:17:35.901Z,108.73
2018-03-28T20:20:03.665Z,120.23
2018-03-28T20:22:31.297Z,130.17
2018-03-28T20:24:58.884Z,125.00
2018-03-28T20:27:26.465Z,108.20
2018-03-28T20:29:54.081Z,116.47
2018-03-28T20:32:21.672Z,117.50
2018-03-28T20:34:49.266Z,97.90
2018-03-28T20:37:16.881Z,111.20
2018-03-28T20:39:44.460Z,99.07
2018-03-28T20:42:12.081Z,105.27
2018-03-28T20:44:39.682Z,108.97
2018-03-28T20:47:07.284Z,132.73
2018-03-28T20:49:34.913Z,123.23
2018-03-28T20:52:02.542Z,128.57
2018-03-28T20:54:30.146Z,126.03
2018-03-28T20:56:57.735Z,129.53
2018-03-28T20:59:25.457Z,126.00
2018-03-28T21:01:53.048Z,117.70
2018-03-28T21:04:20.662Z,117.90
2018-03-28T21:06:48.295Z,105.10
2018-03-28T21:09:16.819Z,122.10
2018-03-28T21:11:44.409Z,112.93
2018-03-28T21:14:12.033Z,105.27
2018-03-28T21:16:39.610Z,127.50
2018-03-28T21:19:07.220Z,111.90
2018-03-28T21:21:34.859Z,113.00
2018-03-28T21:24:02.465Z,117.30
2018-03-28T21:26:30.046Z,114.97
2018-03-28T21:28:57.692Z,107.57
2018-03-28T21:31:25.284Z,179.83
2018-03-28T21:33:52.863Z,160.00
2018-03-28T21:36:20.473Z,147.73
2018-03-28T21:38:48.054Z,142.03
2018-03-28T21:41:15.645Z,121.67
2018-03-28T21:43:43.294Z,120.13
2018-03-28T21:46:10.918Z,115.03
2018-03-28T21:48:38.594Z,104.53
2018-03-28T21:51:06.228Z,100.67
2018-03-28T21:53:33.808Z,106.17
2018-03-28T21:56:01.390Z,124.23
2018-03-28T21:58:29.015Z,134.00
2018-03-28T22:00:56.609Z,121.77
2018-03-28T22:03:24.236Z,111.53
2018-03-28T22:05:52.032Z,99.97
2018-03-28T22:08:19.708Z,93.80
2018-03-28T22:10:47.339Z,120.60
2018-03-28T22:13:14.975Z,117.10
2018-03-28T22:15:42.577Z,102.00
2018-03-28T22:18:10.162Z,85.63
2018-03-28T22:20:37.794Z,94.73
2018-03-28T22:23:05.379Z,91.40
2018-03-28T22:25:32.971Z,79.93
2018-03-28T22:28:00.603Z,81.63
2018-03-28T22:30:28.207Z,82.80
2018-03-28T22:32:55.804Z,86.13
2018-03-28T22:35:23.450Z,81.90
2018-03-28T22:37:51.042Z,83.43
2018-03-28T22:40:18.657Z,100.37
2018-03-28T22:42:46.286Z,107.00
2018-03-28T22:45:13.925Z,107.67
2018-03-28T22:47:41.537Z,109.87
2018-03-28T22:50:09.167Z,134.30
2018-03-28T22:52:36.760Z,118.80
2018-03-28T22:55:04.363Z,118.87
2018-03-28T22:57:32.002Z,132.87
2018-03-28T22:59:59.599Z,120.73
2018-03-28T23:02:27.205Z,111.53
2018-03-28T23:04:54.860Z,113.30
2018-03-28T23:07:22.456Z,102.00
2018-03-28T23:09:50.090Z,101.03
2018-03-28T23:12:17.722Z,115.00
2018-03-28T23:14:45.326Z,115.27
2018-03-28T23:17:12.926Z,120.63
2018-03-28T23:19:40.610Z,106.40
2018-03-28T23:22:08.285Z,96.80
2018-03-28T23:24:35.886Z,99.27
2018-03-28T23:27:03.639Z,114.17
2018-03-28T23:29:31.241Z,82.67
2018-03-28T23:31:58.838Z,105.73
2018-03-28T23:34:26.472Z,136.10
2018-03-28T23:36:54.077Z,121.47
2018-03-28T23:39:21.682Z,120.87
2018-03-28T23:41:49.310Z,93.17
2018-03-28T23:44:16.922Z,133.43
2018-03-28T23:46:44.591Z,109.77
2018-03-28T23:49:12.242Z,107.60
2018-03-28T23:51:39.842Z,105.87
2018-03-28T23:54:07.449Z,115.53
2018-03-28T23:56:35.090Z,176.93
2018-03-28T23:59:02.694Z,126.37
